Time;durP1;ratioP1;P1;durP2;ratioP2;P2;SDS_P1;SDS_P2;PMS_P1;PMS_P2;Temp;Humidity;BMP_temperature;BMP_pressure;BME280_temperature;BME280_humidity;BME280_pressure;Samples;Min_cycle;Max_cycle;Signal;HPM_P1;HPM_P2
2021/05/13 00:00:28;;;;;;;53.55;32.15;;;;;;;8.20;100.00;95156.75;1039045;28;20037;-69
2021/05/13 00:00:58;;;;;;;51.90;30.92;;;;;;;8.23;100.00;95158.84;1033270;28;20029;-66
2021/05/13 00:01:32;;;;;;;48.35;29.70;;;;;;;8.22;100.00;95157.28;1038840;28;20255;-69
2021/05/13 00:02:02;;;;;;;52.65;31.70;;;;;;;8.21;100.00;95159.09;1039168;28;20105;-67
2021/05/13 00:02:33;;;;;;;42.75;27.80;;;;;;;8.20;100.00;95154.91;1039640;28;20300;-68
2021/05/13 00:03:03;;;;;;;39.47;28.05;;;;;;;8.13;100.00;95149.16;1042669;28;20423;-69
2021/05/13 00:03:34;;;;;;;40.45;27.35;;;;;;;8.15;100.00;95146.28;1035082;28;20018;-69
2021/05/13 00:04:04;;;;;;;41.10;26.90;;;;;;;8.20;100.00;95157.53;1033012;28;20045;-68
2021/05/13 00:04:35;;;;;;;43.85;28.08;;;;;;;8.20;100.00;95165.38;1031492;28;20086;-69
2021/05/13 00:05:06;;;;;;;43.55;28.25;;;;;;;8.20;100.00;95157.53;1030727;28;20033;-68
2021/05/13 00:05:36;;;;;;;47.53;30.10;;;;;;;8.19;100.00;95158.56;1035428;28;20021;-67
2021/05/13 00:06:07;;;;;;;53.00;30.45;;;;;;;8.21;100.00;95156.47;1043499;28;20362;-68
2021/05/13 00:06:37;;;;;;;42.47;28.05;;;;;;;8.18;100.00;95156.22;1047543;28;20032;-70
2021/05/13 00:07:07;;;;;;;80.03;37.80;;;;;;;8.21;100.00;95159.09;1039339;28;20463;-69
2021/05/13 00:07:38;;;;;;;55.53;32.85;;;;;;;8.20;100.00;95160.13;1039191;28;20613;-68
2021/05/13 00:08:08;;;;;;;53.45;30.80;;;;;;;8.23;100.00;95158.84;1035228;28;20026;-68
2021/05/13 00:08:39;;;;;;;50.30;30.98;;;;;;;8.22;100.00;95163.28;1034969;28;20054;-68
2021/05/13 00:09:10;;;;;;;58.63;33.58;;;;;;;8.17;100.00;95149.44;1034842;28;20557;-68
2021/05/13 00:09:42;;;;;;;62.03;33.47;;;;;;;8.19;100.00;95158.56;1028786;28;20037;-69
2021/05/13 00:10:19;;;;;;;49.67;30.05;;;;;;;8.17;100.00;95155.44;1031734;28;20109;-68
2021/05/13 00:10:50;;;;;;;60.08;31.40;;;;;;;8.23;100.00;95164.84;1035294;28;20269;-69
2021/05/13 00:11:25;;;;;;;66.90;34.80;;;;;;;8.20;100.00;95149.69;1032032;28;20262;-68
2021/05/13 00:11:57;;;;;;;45.10;27.23;;;;;;;8.14;100.00;95142.88;1032904;28;20045;-69
2021/05/13 00:13:00;;;;;;;41.50;27.17;;;;;;;8.20;100.00;95154.13;1030858;28;20265;-69
2021/05/13 00:13:34;;;;;;;36.88;25.85;;;;;;;8.20;100.00;95157.53;1036108;28;20903;-68
2021/05/13 00:14:06;;;;;;;44.97;28.63;;;;;;;8.19;100.00;95152.56;1039376;28;20312;-68
2021/05/13 00:14:37;;;;;;;45.85;28.23;;;;;;;8.15;100.00;95141.84;1034900;28;20260;-68
2021/05/13 00:15:17;;;;;;;50.92;31.35;;;;;;;8.21;100.00;95156.47;1022389;29;20278;-69
2021/05/13 00:15:47;;;;;;;47.38;29.90;;;;;;;8.15;100.00;95143.66;1027881;28;20023;-68
2021/05/13 00:16:17;;;;;;;40.42;27.35;;;;;;;8.19;100.00;95158.56;1032287;28;20548;-66
2021/05/13 00:16:48;;;;;;;48.97;30.77;;;;;;;8.20;100.00;95149.69;1037621;28;20037;-68
2021/05/13 00:17:18;;;;;;;38.10;25.63;;;;;;;8.20;100.00;95154.91;1034786;28;20018;-68
2021/05/13 00:17:52;;;;;;;42.22;27.42;;;;;;;8.16;100.00;95151.25;1035252;28;20014;-68
2021/05/13 00:18:22;;;;;;;41.95;28.58;;;;;;;8.12;100.00;95147.59;1038806;28;20433;-69
2021/05/13 00:18:53;;;;;;;64.82;32.70;;;;;;;8.18;100.00;95146.56;1034964;28;20292;-68
2021/05/13 00:19:23;;;;;;;42.80;27.88;;;;;;;8.17;100.00;95144.19;1030965;28;20500;-68
2021/05/13 00:19:54;;;;;;;51.15;30.45;;;;;;;8.14;100.00;95142.88;1028657;28;20023;-68
2021/05/13 00:20:32;;;;;;;53.13;30.65;;;;;;;8.18;100.00;95157.03;1027419;28;20026;-68
2021/05/13 00:21:03;;;;;;;46.33;28.92;;;;;;;8.18;100.00;95150.97;1028141;28;20310;-68
2021/05/13 00:21:36;;;;;;;59.13;32.88;;;;;;;7.98;100.00;95121.22;1030551;28;20257;-69
2021/05/13 00:22:07;;;;;;;57.45;32.17;;;;;;;8.16;100.00;95146.03;1035183;28;20029;-69
2021/05/13 00:22:37;;;;;;;50.75;29.73;;;;;;;8.17;100.00;95147.59;1030996;28;20264;-68
2021/05/13 00:23:08;;;;;;;56.08;31.20;;;;;;;8.20;100.00;95148.91;1031827;28;20473;-68
2021/05/13 00:23:38;;;;;;;56.42;33.00;;;;;;;8.12;100.00;95142.38;1030677;28;20058;-68
2021/05/13 00:24:10;;;;;;;56.85;29.52;;;;;;;8.19;100.00;95147.34;1022808;29;20023;-68
2021/05/13 00:24:41;;;;;;;71.07;34.55;;;;;;;8.16;100.00;95146.03;1023093;29;20016;-68
2021/05/13 00:25:12;;;;;;;60.58;32.80;;;;;;;8.18;100.00;95146.56;1029428;28;20261;-68
2021/05/13 00:25:42;;;;;;;55.38;31.60;;;;;;;8.19;100.00;95142.91;1030864;28;20029;-69
2021/05/13 00:26:13;;;;;;;60.60;33.70;;;;;;;8.14;100.00;95140.28;1034987;28;20416;-68
2021/05/13 00:26:48;;;;;;;57.85;32.55;;;;;;;8.20;100.00;95146.28;1034850;28;20144;-68
2021/05/13 00:27:18;;;;;;;59.85;33.53;;;;;;;8.22;100.00;95145.00;1031842;28;20034;-68
2021/05/13 00:27:52;;;;;;;75.38;35.67;;;;;;;8.20;100.00;95149.69;1027436;28;20298;-67
2021/05/13 00:28:22;;;;;;;53.10;32.20;;;;;;;8.18;100.00;95141.34;1029376;28;20512;-69
2021/05/13 00:28:53;;;;;;;58.47;34.20;;;;;;;8.19;100.00;95137.66;1031184;28;20257;-68
2021/05/13 00:29:26;;;;;;;58.38;33.53;;;;;;;8.19;100.00;95142.91;1035052;28;20018;-71
2021/05/13 00:29:57;;;;;;;60.33;32.58;;;;;;;8.16;100.00;95137.41;1035760;28;20037;-68
2021/05/13 00:30:30;;;;;;;58.38;35.15;;;;;;;8.21;100.00;95140.78;1039302;28;20256;-68
2021/05/13 00:31:00;;;;;;;49.25;31.17;;;;;;;8.21;100.00;95135.56;1045566;28;20017;-68
2021/05/13 00:31:31;;;;;;;48.67;30.95;;;;;;;8.20;100.00;95139.22;1043261;28;20946;-68
2021/05/13 00:32:01;;;;;;;49.67;30.85;;;;;;;8.16;100.00;95132.19;1030024;28;20116;-69
2021/05/13 00:32:32;;;;;;;61.25;33.83;;;;;;;8.21;100.00;95145.25;1022795;29;20030;-68
2021/05/13 00:33:02;;;;;;;55.08;33.28;;;;;;;8.20;100.00;95134.00;1023293;29;20030;-69
2021/05/13 00:33:33;;;;;;;54.92;31.73;;;;;;;8.21;100.00;95138.19;1031023;28;20088;-69
2021/05/13 00:34:04;;;;;;;59.33;33.28;;;;;;;8.20;100.00;95139.22;1039353;28;20025;-68
2021/05/13 00:34:34;;;;;;;45.90;29.65;;;;;;;8.16;100.00;95132.97;1034904;28;20022;-67
2021/05/13 00:35:12;;;;;;;51.00;31.15;;;;;;;8.18;100.00;95146.56;1034101;28;20033;-67
2021/05/13 00:35:43;;;;;;;59.53;32.45;;;;;;;8.16;100.00;95132.97;1031201;28;20481;-68
2021/05/13 00:36:13;;;;;;;50.53;30.63;;;;;;;8.15;100.00;95139.25;1034752;28;20273;-69
2021/05/13 00:36:44;;;;;;;64.50;34.58;;;;;;;8.15;100.00;95134.03;1035072;28;20566;-67
2021/05/13 00:37:14;;;;;;;65.25;34.25;;;;;;;8.08;100.00;95124.84;1031092;28;20488;-68
2021/05/13 00:37:45;;;;;;;65.15;34.92;;;;;;;8.10;100.00;95128.78;1027136;28;20477;-68
2021/05/13 00:38:15;;;;;;;79.88;38.00;;;;;;;8.12;100.00;95133.75;1027020;28;20390;-68
2021/05/13 00:38:46;;;;;;;56.80;31.90;;;;;;;8.11;100.00;95135.56;1029791;28;20018;-68
2021/05/13 00:39:16;;;;;;;63.78;34.20;;;;;;;8.12;100.00;95133.75;1027094;28;20011;-69
2021/05/13 00:39:50;;;;;;;50.13;32.30;;;;;;;8.11;100.00;95127.72;1031379;28;20022;-68
2021/05/13 00:40:20;;;;;;;52.05;32.67;;;;;;;8.02;100.00;95122.25;1041242;28;20078;-69
2021/05/13 00:40:53;;;;;;;63.45;34.53;;;;;;;8.05;100.00;95126.19;1030553;28;20805;-68
2021/05/13 00:41:24;;;;;;;62.40;32.65;;;;;;;8.09;100.00;95132.44;1030224;28;20085;-69
2021/05/13 00:41:54;;;;;;;59.25;32.90;;;;;;;8.10;100.00;95123.56;1031438;28;20613;-69
2021/05/13 00:42:25;;;;;;;63.47;33.50;;;;;;;8.03;100.00;95117.81;1031010;28;20031;-68
2021/05/13 00:42:55;;;;;;;64.05;33.97;;;;;;;8.02;100.00;95122.25;1030765;28;20041;-68
2021/05/13 00:43:26;;;;;;;59.13;34.22;;;;;;;8.05;100.00;95126.19;1030962;28;20140;-68
2021/05/13 00:43:56;;;;;;;65.18;34.50;;;;;;;8.08;100.00;95128.28;1030796;28;20497;-68
2021/05/13 00:44:27;;;;;;;65.50;35.90;;;;;;;8.08;100.00;95125.66;1031063;28;20130;-68
2021/05/13 00:44:57;;;;;;;61.63;34.42;;;;;;;8.04;100.00;95124.59;1039390;28;20527;-69
2021/05/13 00:45:28;;;;;;;66.38;34.20;;;;;;;8.05;100.00;95120.97;1033850;28;20852;-67
2021/05/13 00:45:59;;;;;;;80.70;39.00;;;;;;;8.05;100.00;95118.34;1029905;28;20407;-69
2021/05/13 00:46:30;;;;;;;70.75;36.42;;;;;;;8.02;100.00;95117.03;1030906;28;20253;-68
2021/05/13 00:47:01;;;;;;;88.88;40.15;;;;;;;8.03;100.00;95120.44;1030030;28;20034;-69
2021/05/13 00:47:34;;;;;;;63.08;35.05;;;;;;;8.03;100.00;95123.03;1034457;28;20269;-68
2021/05/13 00:48:06;;;;;;;66.75;34.72;;;;;;;8.03;100.00;95117.81;1038783;28;20066;-67
2021/05/13 00:48:39;;;;;;;73.10;37.85;;;;;;;8.02;100.00;95122.25;1039804;28;20268;-69
2021/05/13 00:49:13;;;;;;;65.53;34.47;;;;;;;8.02;100.00;95116.25;1040150;28;20367;-70
2021/05/13 00:49:44;;;;;;;87.10;37.85;;;;;;;8.00;100.00;95118.34;1043330;28;20312;-66
2021/05/13 00:50:15;;;;;;;84.97;38.65;;;;;;;7.96;100.00;95109.44;1039027;28;20402;-69
2021/05/13 00:50:48;;;;;;;84.68;39.15;;;;;;;7.99;100.00;95119.38;1030627;28;20022;-69
2021/05/13 00:51:19;;;;;;;65.93;35.63;;;;;;;7.98;100.00;95109.97;1027064;28;20298;-69
2021/05/13 00:51:49;;;;;;;71.53;37.53;;;;;;;7.96;100.00;95110.22;1027167;28;20266;-69
2021/05/13 00:52:21;;;;;;;72.20;37.53;;;;;;;7.95;100.00;95111.28;1027884;28;20022;-69
2021/05/13 00:52:51;;;;;;;61.00;34.17;;;;;;;7.93;100.00;95107.34;1030675;28;20022;-68
2021/05/13 00:53:22;;;;;;;71.05;36.65;;;;;;;7.91;100.00;95109.44;1031150;28;20636;-69
2021/05/13 00:53:53;;;;;;;73.82;37.22;;;;;;;7.92;100.00;95111.81;1026926;28;20023;-69
2021/05/13 00:54:23;;;;;;;64.88;35.95;;;;;;;7.90;100.00;95110.50;1028111;28;20093;-69
2021/05/13 00:54:53;;;;;;;53.00;31.90;;;;;;;7.86;100.00;95105.00;1030826;28;20033;-70
2021/05/13 00:55:24;;;;;;;61.25;34.58;;;;;;;7.85;100.00;95097.44;1029148;28;20439;-69
2021/05/13 00:55:54;;;;;;;57.85;32.90;;;;;;;7.88;100.00;95100.31;1031248;28;20033;-67
2021/05/13 00:56:28;;;;;;;58.08;33.03;;;;;;;7.89;100.00;95108.94;1030888;28;20011;-67
2021/05/13 00:56:58;;;;;;;65.70;34.30;;;;;;;7.87;100.00;95108.41;1032903;28;20025;-69
2021/05/13 00:57:28;;;;;;;64.95;35.00;;;;;;;7.86;100.00;95109.44;1035170;28;20265;-68
2021/05/13 00:58:02;;;;;;;71.80;37.75;;;;;;;7.78;100.00;95095.88;1031178;28;20049;-68
2021/05/13 00:58:36;;;;;;;58.20;33.30;;;;;;;7.81;100.00;95102.38;1031451;28;20085;-68
2021/05/13 00:59:08;;;;;;;75.43;35.83;;;;;;;7.77;100.00;95102.13;1026897;28;20270;-68
2021/05/13 00:59:42;;;;;;;69.63;35.30;;;;;;;7.70;100.00;95092.97;1026937;28;20301;-68
2021/05/13 01:01:05;;;;;;;66.03;34.63;;;;;;;7.71;100.00;95100.56;1035091;28;20276;-68
2021/05/13 01:02:16;;;;;;;69.22;34.92;;;;;;;7.70;100.00;95098.97;1038262;28;20626;-69
2021/05/13 01:02:46;;;;;;;106.13;41.70;;;;;;;7.67;100.00;95098.72;1039206;28;20022;-69
2021/05/13 01:03:17;;;;;;;79.25;36.17;;;;;;;7.56;100.00;95090.88;1032554;28;20041;-68
2021/05/13 01:03:48;;;;;;;64.32;32.85;;;;;;;7.61;100.00;95094.53;1035797;28;20052;-68
2021/05/13 01:04:19;;;;;;;55.28;32.38;;;;;;;7.62;100.00;95104.72;1039281;28;20029;-68
2021/05/13 01:04:50;;;;;;;92.72;40.00;;;;;;;7.61;100.00;95100.53;1035225;28;20111;-70
2021/05/13 01:05:21;;;;;;;70.40;35.47;;;;;;;7.57;100.00;95096.88;1029788;28;21279;-66
2021/05/13 01:05:51;;;;;;;82.88;37.53;;;;;;;7.57;100.00;95099.47;1035082;28;20028;-69
2021/05/13 01:06:21;;;;;;;89.13;39.42;;;;;;;7.56;100.00;95103.16;1027036;28;20030;-68
2021/05/13 01:06:52;;;;;;;98.65;41.35;;;;;;;7.56;100.00;95098.69;1030867;28;20038;-68
2021/05/13 01:07:22;;;;;;;88.85;37.88;;;;;;;7.53;100.00;95096.59;1026906;28;20477;-68
2021/05/13 01:07:53;;;;;;;89.63;39.25;;;;;;;7.46;100.00;95082.25;1034751;28;20505;-67
2021/05/13 01:08:23;;;;;;;86.10;39.28;;;;;;;7.52;100.00;95091.66;1035277;28;20072;-70
2021/05/13 01:08:54;;;;;;;72.75;36.60;;;;;;;7.45;100.00;95085.91;1034887;28;20029;-68
2021/05/13 01:09:27;;;;;;;88.68;39.78;;;;;;;7.52;100.00;95096.88;1034905;28;20026;-72
2021/05/13 01:09:57;;;;;;;88.35;40.88;;;;;;;7.51;100.00;95092.69;1039468;28;20021;-68
2021/05/13 01:10:28;;;;;;;74.00;38.17;;;;;;;7.46;100.00;95087.47;1038927;28;20280;-69
2021/05/13 01:11:02;;;;;;;88.68;40.15;;;;;;;7.48;100.00;95094.00;1035748;28;20569;-69
2021/05/13 01:11:32;;;;;;;100.25;41.70;;;;;;;7.47;100.00;95094.25;1038433;28;20631;-69
2021/05/13 01:12:14;;;;;;;97.80;40.97;;;;;;;7.46;100.00;95087.47;1035522;28;20301;-67
2021/05/13 01:12:46;;;;;;;107.10;40.70;;;;;;;7.37;100.00;95084.56;1026841;28;20452;-67
2021/05/13 01:13:21;;;;;;;60.67;34.65;;;;;;;7.35;100.00;95080.66;1034950;28;21010;-69
2021/05/13 01:13:55;;;;;;;115.30;42.72;;;;;;;7.39;100.00;95092.16;1034746;28;20786;-70
2021/05/13 01:15:20;;;;;;;116.25;43.17;;;;;;;7.39;100.00;95090.31;1027494;28;20267;-69
2021/05/13 01:16:08;;;;;;;93.22;40.13;;;;;;;7.38;100.00;95093.16;1025680;28;20344;-68
2021/05/13 01:16:48;;;;;;;113.95;43.58;;;;;;;7.35;100.00;95086.66;1033541;28;20261;-69
2021/05/13 01:17:24;;;;;;;71.55;35.45;;;;;;;7.29;100.00;95079.88;1037967;28;20257;-70
2021/05/13 01:18:18;;;;;;;106.90;42.85;;;;;;;7.36;100.00;95082.22;1038856;28;20100;-67
2021/05/13 01:18:45;;;;;;;92.70;41.53;;;;;;;7.38;100.00;95091.38;1027807;28;20360;-68
2021/05/13 01:19:17;;;;;;;98.63;42.38;;;;;;;7.40;100.00;95093.72;1034101;28;20018;-68
2021/05/13 01:19:50;;;;;;;101.25;41.42;;;;;;;7.40;100.00;95088.50;1036751;28;20052;-69
2021/05/13 01:20:20;;;;;;;116.07;45.22;;;;;;;7.40;100.00;95089.28;1030507;28;20269;-68
2021/05/13 01:20:51;;;;;;;122.43;44.65;;;;;;;7.40;100.00;95086.66;1028027;28;20269;-67
2021/05/13 01:21:21;;;;;;;169.40;49.40;;;;;;;7.39;100.00;95087.72;1031412;28;20122;-68
2021/05/13 01:21:52;;;;;;;110.43;43.63;;;;;;;7.41;100.00;95090.06;1031115;28;20419;-68
2021/05/13 01:22:23;;;;;;;92.10;41.83;;;;;;;7.38;100.00;95086.16;1035232;28;20077;-69
2021/05/13 01:22:55;;;;;;;82.93;39.45;;;;;;;7.33;100.00;95076.47;1038936;28;20087;-68
2021/05/13 01:23:25;;;;;;;99.00;42.58;;;;;;;7.38;100.00;95087.97;1035388;28;20264;-69
2021/05/13 01:23:56;;;;;;;67.70;34.70;;;;;;;7.39;100.00;95087.72;1034834;28;20311;-69
2021/05/13 01:24:26;;;;;;;78.65;37.92;;;;;;;7.39;100.00;95086.94;1033954;28;20085;-68
2021/05/13 01:24:58;;;;;;;103.13;42.03;;;;;;;7.38;100.00;95093.16;1039584;28;20033;-69
2021/05/13 01:25:29;;;;;;;75.10;36.75;;;;;;;7.38;100.00;95085.34;1042229;28;20053;-68
2021/05/13 01:26:04;;;;;;;84.05;39.53;;;;;;;7.36;100.00;95087.44;1034665;28;20268;-68
2021/05/13 01:26:35;;;;;;;119.57;44.05;;;;;;;7.36;100.00;95092.66;1030905;28;20268;-69
2021/05/13 01:27:05;;;;;;;101.28;43.40;;;;;;;7.40;100.00;95088.50;1031661;28;20272;-68
2021/05/13 01:27:39;;;;;;;102.10;43.65;;;;;;;7.38;100.00;95085.34;1031772;28;20022;-69
2021/05/13 01:28:09;;;;;;;82.00;40.28;;;;;;;7.37;100.00;95089.00;1036080;28;20033;-68
2021/05/13 01:28:40;;;;;;;102.95;43.55;;;;;;;7.36;100.00;95087.44;1039285;28;20265;-68
2021/05/13 01:29:11;;;;;;;113.45;43.72;;;;;;;7.37;100.00;95087.19;1039157;28;20497;-68
2021/05/13 01:29:49;;;;;;;84.72;40.95;;;;;;;7.33;100.00;95084.31;1039023;28;20025;-67
2021/05/13 01:30:19;;;;;;;125.80;44.47;;;;;;;7.27;100.00;95074.88;1034905;28;20313;-69
2021/05/13 01:30:50;;;;;;;104.45;42.58;;;;;;;7.31;100.00;95086.41;1034779;28;20368;-68
2021/05/13 01:31:21;;;;;;;120.55;44.17;;;;;;;7.32;100.00;95089.78;1034772;28;20018;-69
2021/05/13 01:31:54;;;;;;;107.55;42.33;;;;;;;7.32;100.00;95087.97;1030683;28;20026;-68
2021/05/13 01:32:25;;;;;;;76.43;39.20;;;;;;;7.22;100.00;95072.28;1035327;28;20066;-68
2021/05/13 01:32:58;;;;;;;81.57;38.35;;;;;;;7.28;100.00;95086.91;1038898;28;20272;-67
2021/05/13 01:33:29;;;;;;;95.15;41.13;;;;;;;7.30;100.00;95090.03;1039973;28;20112;-68
2021/05/13 01:33:59;;;;;;;100.75;42.88;;;;;;;7.32;100.00;95089.78;1038036;28;20268;-68
2021/05/13 01:34:30;;;;;;;113.80;43.33;;;;;;;7.23;100.00;95076.44;1035559;28;20037;-69
2021/05/13 01:35:00;;;;;;;94.82;40.72;;;;;;;7.30;100.00;95090.03;1034804;28;20030;-66
2021/05/13 01:35:31;;;;;;;73.28;36.55;;;;;;;7.30;100.00;95090.03;1030652;28;20539;-68
2021/05/13 01:36:01;;;;;;;87.97;40.58;;;;;;;7.29;100.00;95088.47;1035041;28;20034;-67
2021/05/13 01:36:33;;;;;;;91.50;40.20;;;;;;;7.30;100.00;95092.63;1038825;28;20762;-68
2021/05/13 01:37:04;;;;;;;70.97;35.70;;;;;;;7.30;100.00;95095.25;1039415;28;20040;-68
2021/05/13 01:37:34;;;;;;;82.40;39.50;;;;;;;7.21;100.00;95081.16;1039031;28;20737;-68
2021/05/13 01:38:12;;;;;;;115.90;43.95;;;;;;;7.31;100.00;95083.78;1030674;28;20085;-68
2021/05/13 01:38:43;;;;;;;104.50;42.75;;;;;;;7.38;100.00;95090.56;1026722;28;20038;-68
2021/05/13 01:39:16;;;;;;;88.13;40.45;;;;;;;7.28;100.00;95075.69;1026964;28;20361;-69
2021/05/13 01:39:46;;;;;;;84.18;39.67;;;;;;;7.37;100.00;95094.22;1030672;28;20428;-69
2021/05/13 01:40:17;;;;;;;106.03;41.63;;;;;;;7.33;100.00;95084.31;1032173;28;20261;-69
2021/05/13 01:40:58;;;;;;;76.25;36.05;;;;;;;7.33;100.00;95093.97;1031084;28;20616;-68
2021/05/13 01:41:29;;;;;;;111.60;41.55;;;;;;;7.35;100.00;95085.88;1032506;28;20073;-69
2021/05/13 01:41:59;;;;;;;83.30;40.45;;;;;;;7.35;100.00;95086.66;1035134;28;20261;-68
2021/05/13 01:42:30;;;;;;;82.63;39.08;;;;;;;7.35;100.00;95091.09;1034027;28;20033;-68
2021/05/13 01:43:00;;;;;;;92.30;41.10;;;;;;;7.32;100.00;95081.97;1038391;28;20020;-70
2021/05/13 01:43:31;;;;;;;100.53;43.10;;;;;;;7.31;100.00;95075.19;1038798;28;20131;-67
2021/05/13 01:44:01;;;;;;;99.40;42.78;;;;;;;7.36;100.00;95082.22;1037330;28;20017;-68
2021/05/13 01:44:32;;;;;;;96.57;41.65;;;;;;;7.36;100.00;95088.22;1031347;28;20072;-66
2021/05/13 01:45:03;;;;;;;97.82;43.08;;;;;;;7.35;100.00;95091.88;1028799;28;20014;-68
2021/05/13 01:45:33;;;;;;;64.50;35.35;;;;;;;7.35;100.00;95091.09;1022150;28;20031;-69
2021/05/13 01:46:04;;;;;;;114.97;45.33;;;;;;;7.34;100.00;95085.06;1026557;28;20035;-69
2021/05/13 01:46:38;;;;;;;89.70;41.53;;;;;;;7.27;100.00;95079.31;1025848;28;20045;-68
2021/05/13 01:47:11;;;;;;;88.03;37.92;;;;;;;7.31;100.00;95086.41;1029206;28;20575;-68
2021/05/13 01:47:41;;;;;;;76.22;37.65;;;;;;;7.32;100.00;95087.97;1031452;28;20277;-70
2021/05/13 01:48:12;;;;;;;86.57;38.90;;;;;;;7.32;100.00;95087.97;1033686;28;20707;-67
2021/05/13 01:48:44;;;;;;;74.80;37.47;;;;;;;7.33;100.00;95089.53;1036958;28;20017;-68
2021/05/13 01:49:16;;;;;;;67.97;35.83;;;;;;;7.28;100.00;95083.53;1038896;28;20426;-68
2021/05/13 01:49:46;;;;;;;66.28;35.45;;;;;;;7.25;100.00;95078.81;1040237;28;20256;-69
2021/05/13 01:50:17;;;;;;;95.28;40.60;;;;;;;7.30;100.00;95082.19;1035190;28;20264;-68
2021/05/13 01:50:48;;;;;;;99.80;41.00;;;;;;;7.23;100.00;95071.22;1039016;28;20162;-68
2021/05/13 01:51:19;;;;;;;96.88;42.45;;;;;;;7.30;100.00;95082.19;1034141;28;20076;-68
2021/05/13 01:51:49;;;;;;;106.50;43.95;;;;;;;7.32;100.00;95082.75;1034847;28;20335;-69
2021/05/13 01:52:19;;;;;;;93.90;41.35;;;;;;;7.26;100.00;95073.31;1038806;28;20684;-69
2021/05/13 01:52:50;;;;;;;139.88;46.28;;;;;;;7.29;100.00;95083.25;1038778;28;20017;-69
2021/05/13 01:53:20;;;;;;;107.38;44.38;;;;;;;7.28;100.00;95079.09;1041020;28;20102;-69
2021/05/13 01:53:51;;;;;;;91.63;42.13;;;;;;;7.33;100.00;95081.69;1030507;28;20490;-68
2021/05/13 01:54:21;;;;;;;102.20;42.72;;;;;;;7.33;100.00;95080.91;1031167;28;20118;-69
2021/05/13 01:54:52;;;;;;;120.97;45.17;;;;;;;7.30;100.00;95073.59;1026609;28;20026;-68
2021/05/13 01:55:22;;;;;;;129.30;45.03;;;;;;;7.28;100.00;95080.91;1025602;28;20026;-68
2021/05/13 01:55:53;;;;;;;113.72;45.50;;;;;;;7.22;100.00;95069.66;1038112;28;20129;-69
2021/05/13 01:56:23;;;;;;;101.88;42.83;;;;;;;7.25;100.00;95071.78;1035558;28;20125;-69
2021/05/13 01:57:03;;;;;;;169.60;50.78;;;;;;;7.21;100.00;95065.50;1034785;28;20022;-69
2021/05/13 01:57:34;;;;;;;114.63;42.42;;;;;;;7.27;100.00;95071.50;1035129;28;20130;-70
2021/05/13 01:58:04;;;;;;;132.43;46.65;;;;;;;7.24;100.00;95070.22;1033617;28;20106;-68
2021/05/13 01:58:35;;;;;;;164.90;50.25;;;;;;;7.22;100.00;95063.66;1030294;28;20821;-69
2021/05/13 01:59:05;;;;;;;107.90;45.42;;;;;;;7.30;100.00;95074.38;1030547;28;20029;-68
2021/05/13 01:59:36;;;;;;;123.45;47.05;;;;;;;7.33;100.00;95076.47;1026613;28;20019;-68
2021/05/13 02:00:07;;;;;;;113.72;46.58;;;;;;;7.26;100.00;95068.09;1022421;28;20043;-67
2021/05/13 02:00:39;;;;;;;132.68;48.25;;;;;;;7.30;100.00;95074.38;1021740;28;20035;-68
2021/05/13 02:01:12;;;;;;;142.88;48.33;;;;;;;7.31;100.00;95073.34;1032359;28;20072;-68
2021/05/13 02:01:42;;;;;;;105.93;44.75;;;;;;;7.27;100.00;95058.44;1034414;28;20338;-68
2021/05/13 02:02:14;;;;;;;110.28;43.55;;;;;;;7.30;100.00;95074.38;1034475;28;20280;-68
2021/05/13 02:02:47;;;;;;;115.57;44.92;;;;;;;7.30;100.00;95071.75;1034589;28;20139;-69
2021/05/13 02:03:18;;;;;;;88.53;39.95;;;;;;;7.28;100.00;95075.69;1031225;28;20347;-68
2021/05/13 02:03:48;;;;;;;112.32;44.13;;;;;;;7.26;100.00;95068.09;1039031;28;20330;-69
2021/05/13 02:04:19;;;;;;;112.60;44.15;;;;;;;7.27;100.00;95072.28;1038827;28;20080;-69
2021/05/13 02:04:49;;;;;;;105.55;42.03;;;;;;;7.25;100.00;95071.78;1034338;28;20033;-68
2021/05/13 02:05:21;;;;;;;125.18;46.63;;;;;;;7.26;100.00;95070.72;1037739;28;20028;-66
2021/05/13 02:05:51;;;;;;;99.70;41.40;;;;;;;7.20;100.00;95069.13;1034989;28;20033;-68
2021/05/13 02:06:21;;;;;;;122.97;45.10;;;;;;;7.20;100.00;95069.13;1034660;28;20260;-68
2021/05/13 02:06:52;;;;;;;110.07;42.20;;;;;;;7.20;100.00;95069.13;1034214;28;20056;-69
2021/05/13 02:07:22;;;;;;;120.32;44.50;;;;;;;7.13;100.00;95063.38;1030747;28;20029;-68
2021/05/13 02:07:53;;;;;;;111.18;44.22;;;;;;;7.18;100.00;95070.44;1033497;28;20021;-67
2021/05/13 02:08:23;;;;;;;132.63;47.78;;;;;;;7.18;100.00;95071.22;1030839;28;20404;-69
2021/05/13 02:08:54;;;;;;;102.15;42.20;;;;;;;7.13;100.00;95063.38;1034464;28;20249;-69
2021/05/13 02:09:24;;;;;;;124.13;45.50;;;;;;;7.19;100.00;95072.00;1030364;28;20038;-69
2021/05/13 02:09:55;;;;;;;81.45;38.15;;;;;;;7.17;100.00;95069.66;1022353;28;20023;-67
2021/05/13 02:10:25;;;;;;;106.05;41.17;;;;;;;7.08;100.00;95055.56;1026370;28;20031;-68
2021/05/13 02:10:55;;;;;;;107.93;41.78;;;;;;;7.08;100.00;95066.00;1022434;28;20113;-70
2021/05/13 02:11:26;;;;;;;114.20;43.78;;;;;;;7.05;100.00;95066.50;1022212;28;20078;-68
2021/05/13 02:11:59;;;;;;;126.03;48.30;;;;;;;7.15;100.00;95068.34;1026285;28;20640;-68
2021/05/13 02:12:29;;;;;;;117.53;44.78;;;;;;;7.17;100.00;95069.66;1023030;28;20394;-68
2021/05/13 02:13:00;;;;;;;119.55;44.38;;;;;;;7.18;100.00;95070.44;1025308;28;20285;-68
2021/05/13 02:13:30;;;;;;;84.00;39.03;;;;;;;7.16;100.00;95069.91;1031038;28;20348;-67
2021/05/13 02:14:00;;;;;;;140.27;48.35;;;;;;;7.17;100.00;95074.88;1027256;28;20027;-68
2021/05/13 02:14:31;;;;;;;114.30;44.70;;;;;;;7.17;100.00;95071.47;1030481;28;20026;-69
2021/05/13 02:15:02;;;;;;;158.65;48.90;;;;;;;7.14;100.00;95061.53;1031140;28;20072;-66
2021/05/13 02:15:33;;;;;;;99.47;39.85;;;;;;;7.16;100.00;95073.31;1030281;28;20042;-68
2021/05/13 02:16:04;;;;;;;134.45;46.35;;;;;;;7.20;100.00;95071.75;1026646;28;20941;-70
2021/05/13 02:16:34;;;;;;;140.45;48.08;;;;;;;7.13;100.00;95058.16;1030487;28;20094;-68
2021/05/13 02:17:05;;;;;;;122.75;47.08;;;;;;;7.18;100.00;95060.00;1031428;28;20030;-69
2021/05/13 02:17:35;;;;;;;180.32;51.53;;;;;;;7.25;100.00;95071.78;1034691;28;20092;-68
2021/05/13 02:18:06;;;;;;;132.80;47.55;;;;;;;7.24;100.00;95065.00;1032605;28;20034;-69
2021/05/13 02:18:36;;;;;;;169.43;51.38;;;;;;;7.22;100.00;95055.84;1029430;28;20033;-68
2021/05/13 02:19:07;;;;;;;122.15;46.53;;;;;;;7.28;100.00;95068.66;1026457;28;20038;-69
2021/05/13 02:19:37;;;;;;;175.52;52.53;;;;;;;7.32;100.00;95069.69;1030968;28;20018;-68
2021/05/13 02:20:10;;;;;;;119.93;45.17;;;;;;;7.26;100.00;95052.44;1037919;28;20024;-68
2021/05/13 02:20:40;;;;;;;160.88;51.35;;;;;;;7.31;100.00;95062.91;1037722;28;20033;-67
2021/05/13 02:21:11;;;;;;;106.53;44.78;;;;;;;7.38;100.00;95069.69;1032554;28;20309;-68
2021/05/13 02:21:42;;;;;;;130.55;46.22;;;;;;;7.39;100.00;95060.84;1032647;28;20153;-67
2021/05/13 02:22:12;;;;;;;127.72;48.50;;;;;;;7.39;100.00;95066.84;1034932;28;20424;-68
2021/05/13 02:22:43;;;;;;;123.03;45.47;;;;;;;7.39;100.00;95068.66;1038661;28;20079;-69
2021/05/13 02:23:13;;;;;;;145.60;49.47;;;;;;;7.39;100.00;95066.84;1036815;28;20034;-68
2021/05/13 02:23:44;;;;;;;111.82;45.13;;;;;;;7.40;100.00;95065.78;1038914;28;20025;-70
2021/05/13 02:24:14;;;;;;;130.88;46.30;;;;;;;7.40;100.00;95062.41;1038636;28;20033;-68
2021/05/13 02:24:45;;;;;;;120.75;45.58;;;;;;;7.38;100.00;95059.25;1034619;28;20049;-67
2021/05/13 02:25:15;;;;;;;104.55;42.15;;;;;;;7.40;100.00;95065.78;1022334;28;20035;-68
2021/05/13 02:25:47;;;;;;;95.93;41.42;;;;;;;7.42;100.00;95061.09;1032429;28;20068;-69
2021/05/13 02:26:20;;;;;;;94.30;43.08;;;;;;;7.43;100.00;95054.81;1038796;28;20190;-67
2021/05/13 02:26:50;;;;;;;132.40;47.17;;;;;;;7.44;100.00;95064.22;1035873;28;21011;-68
2021/05/13 02:27:21;;;;;;;93.32;40.72;;;;;;;7.45;100.00;95059.81;1036069;28;20276;-68